Wallsend, Kentucky
Current Conditions -  °F | °C
As of 1:55 PM on Wednesday 26 Nov 2014 (Local Time) from KI35 Reporting Station
Broken Clouds Broken Clouds  
Wind Chill: 52°   Ceiling: 4600
Heat Index: 52°   Visibility: 10mi
Dew Point: 28°   Wind: 9mph
Humidity: 41%   Direction: 300°WNW
Pressure: 29.98"   Gusts: NA
Location:  36.7417°N, 83.6911°W
Report Text: KI35 261855Z AUTO 30008KT 280V340 10SM BKN046 11/M02 A2998 RMK AO1
Loading
Personal Weather Stations






























Interactive Weather Map New forecast layout! Learn more

10-Day Weather Forecast

Advertisements
Track Severe Weather on mobile